Terminal Aerodrome Forecast
Issued by NWS

Home | Current Version | Previous Version | Text Only | Print | Product List | Glossary On
Versions: 1 2 3 4 5 6 7 8 9 10 11 12 13 14
000
FTUS44 KLZK 061100
TAFBPK
TAF
KBPK 061125Z 0612/0712 15005KT P6SM OVC120
     FM061400 16009KT P6SM VCSH BKN060
     FM061600 17010G18KT P6SM BKN050
     FM070100 17007KT P6SM BKN050=

USA.gov is the U.S. government's official web portal to all federal, state and local government web resources and services.